sensor_id;sensor_type;location;lat;lon;timestamp;P1;durP1;ratioP1;P2;durP2;ratioP2
24261;SDS011;12385;51.412;5.540;2024-03-08T00:00:28;55.88;;;31.10;;
24261;SDS011;12385;51.412;5.540;2024-03-08T00:02:56;50.30;;;29.10;;
24261;SDS011;12385;51.412;5.540;2024-03-08T00:05:26;59.25;;;30.67;;
24261;SDS011;12385;51.412;5.540;2024-03-08T00:07:55;53.83;;;30.83;;
24261;SDS011;12385;51.412;5.540;2024-03-08T00:10:27;54.25;;;30.10;;
24261;SDS011;12385;51.412;5.540;2024-03-08T00:12:57;55.25;;;31.00;;
24261;SDS011;12385;51.412;5.540;2024-03-08T00:15:27;54.33;;;30.55;;
24261;SDS011;12385;51.412;5.540;2024-03-08T00:17:57;51.67;;;29.55;;
24261;SDS011;12385;51.412;5.540;2024-03-08T00:20:27;53.40;;;30.58;;
24261;SDS011;12385;51.412;5.540;2024-03-08T00:22:58;53.45;;;29.88;;
24261;SDS011;12385;51.412;5.540;2024-03-08T00:25:27;58.65;;;30.52;;
24261;SDS011;12385;51.412;5.540;2024-03-08T00:27:57;53.13;;;31.05;;
24261;SDS011;12385;51.412;5.540;2024-03-08T00:30:27;48.50;;;30.33;;
24261;SDS011;12385;51.412;5.540;2024-03-08T00:32:57;58.08;;;30.88;;
24261;SDS011;12385;51.412;5.540;2024-03-08T00:35:27;51.00;;;30.23;;
24261;SDS011;12385;51.412;5.540;2024-03-08T00:37:57;55.92;;;31.70;;
24261;SDS011;12385;51.412;5.540;2024-03-08T00:40:25;48.75;;;29.80;;
24261;SDS011;12385;51.412;5.540;2024-03-08T00:42:57;54.67;;;30.85;;
24261;SDS011;12385;51.412;5.540;2024-03-08T00:45:26;55.58;;;31.40;;
24261;SDS011;12385;51.412;5.540;2024-03-08T00:52:58;51.88;;;29.08;;
24261;SDS011;12385;51.412;5.540;2024-03-08T00:55:27;50.47;;;30.95;;
24261;SDS011;12385;51.412;5.540;2024-03-08T01:00:28;50.95;;;30.67;;
24261;SDS011;12385;51.412;5.540;2024-03-08T01:02:57;52.53;;;31.40;;
24261;SDS011;12385;51.412;5.540;2024-03-08T01:05:28;53.22;;;30.70;;
24261;SDS011;12385;51.412;5.540;2024-03-08T01:07:57;56.47;;;31.40;;
24261;SDS011;12385;51.412;5.540;2024-03-08T01:10:27;52.38;;;30.38;;
24261;SDS011;12385;51.412;5.540;2024-03-08T01:12:57;54.10;;;30.85;;
24261;SDS011;12385;51.412;5.540;2024-03-08T01:15:26;55.35;;;30.48;;
24261;SDS011;12385;51.412;5.540;2024-03-08T01:17:57;47.70;;;30.00;;
24261;SDS011;12385;51.412;5.540;2024-03-08T01:20:26;52.72;;;30.67;;
24261;SDS011;12385;51.412;5.540;2024-03-08T01:22:57;54.85;;;31.25;;
24261;SDS011;12385;51.412;5.540;2024-03-08T01:25:27;50.28;;;30.30;;
24261;SDS011;12385;51.412;5.540;2024-03-08T01:30:27;52.65;;;30.27;;
24261;SDS011;12385;51.412;5.540;2024-03-08T01:32:59;50.22;;;30.30;;
24261;SDS011;12385;51.412;5.540;2024-03-08T01:35:27;50.53;;;31.05;;
24261;SDS011;12385;51.412;5.540;2024-03-08T01:37:57;47.13;;;30.10;;
24261;SDS011;12385;51.412;5.540;2024-03-08T01:40:27;49.60;;;30.08;;
24261;SDS011;12385;51.412;5.540;2024-03-08T01:43:16;50.90;;;29.42;;
24261;SDS011;12385;51.412;5.540;2024-03-08T01:45:55;47.42;;;29.92;;
24261;SDS011;12385;51.412;5.540;2024-03-08T01:48:29;48.60;;;29.35;;
24261;SDS011;12385;51.412;5.540;2024-03-08T01:50:57;52.67;;;30.77;;
24261;SDS011;12385;51.412;5.540;2024-03-08T01:53:26;52.13;;;31.00;;
24261;SDS011;12385;51.412;5.540;2024-03-08T01:55:57;49.05;;;30.17;;
24261;SDS011;12385;51.412;5.540;2024-03-08T01:58:27;52.05;;;29.95;;
24261;SDS011;12385;51.412;5.540;2024-03-08T02:00:56;48.60;;;30.25;;
24261;SDS011;12385;51.412;5.540;2024-03-08T02:03:26;50.38;;;30.80;;
24261;SDS011;12385;51.412;5.540;2024-03-08T02:05:55;49.88;;;29.73;;
24261;SDS011;12385;51.412;5.540;2024-03-08T02:08:26;50.33;;;30.88;;
24261;SDS011;12385;51.412;5.540;2024-03-08T02:10:55;46.53;;;30.00;;
24261;SDS011;12385;51.412;5.540;2024-03-08T02:13:27;50.22;;;30.60;;
24261;SDS011;12385;51.412;5.540;2024-03-08T02:15:57;46.83;;;29.63;;
24261;SDS011;12385;51.412;5.540;2024-03-08T02:18:28;47.35;;;30.17;;
24261;SDS011;12385;51.412;5.540;2024-03-08T02:20:57;50.22;;;30.65;;
24261;SDS011;12385;51.412;5.540;2024-03-08T02:23:26;48.03;;;29.35;;
24261;SDS011;12385;51.412;5.540;2024-03-08T02:25:56;50.60;;;29.97;;
24261;SDS011;12385;51.412;5.540;2024-03-08T02:28:26;48.00;;;30.63;;
24261;SDS011;12385;51.412;5.540;2024-03-08T02:30:56;46.85;;;30.60;;
24261;SDS011;12385;51.412;5.540;2024-03-08T02:33:27;47.42;;;29.67;;
24261;SDS011;12385;51.412;5.540;2024-03-08T02:35:57;48.20;;;30.33;;
24261;SDS011;12385;51.412;5.540;2024-03-08T02:38:25;49.93;;;31.63;;
24261;SDS011;12385;51.412;5.540;2024-03-08T02:40:56;49.45;;;30.65;;
24261;SDS011;12385;51.412;5.540;2024-03-08T02:43:24;54.38;;;32.35;;
24261;SDS011;12385;51.412;5.540;2024-03-08T02:45:55;49.17;;;31.17;;
24261;SDS011;12385;51.412;5.540;2024-03-08T02:48:26;52.42;;;31.88;;
24261;SDS011;12385;51.412;5.540;2024-03-08T02:50:55;52.35;;;32.15;;
24261;SDS011;12385;51.412;5.540;2024-03-08T02:53:25;47.92;;;30.98;;
24261;SDS011;12385;51.412;5.540;2024-03-08T02:55:54;51.45;;;32.25;;
24261;SDS011;12385;51.412;5.540;2024-03-08T02:58:21;51.37;;;32.20;;
24261;SDS011;12385;51.412;5.540;2024-03-08T03:00:52;51.55;;;32.13;;
24261;SDS011;12385;51.412;5.540;2024-03-08T03:03:26;50.70;;;30.52;;
24261;SDS011;12385;51.412;5.540;2024-03-08T03:05:56;49.80;;;31.30;;
24261;SDS011;12385;51.412;5.540;2024-03-08T03:08:28;47.80;;;30.88;;
24261;SDS011;12385;51.412;5.540;2024-03-08T03:10:57;46.38;;;30.65;;
24261;SDS011;12385;51.412;5.540;2024-03-08T03:13:27;48.78;;;30.73;;
24261;SDS011;12385;51.412;5.540;2024-03-08T03:15:57;50.35;;;31.05;;
24261;SDS011;12385;51.412;5.540;2024-03-08T03:18:25;47.88;;;30.77;;
24261;SDS011;12385;51.412;5.540;2024-03-08T03:20:58;48.92;;;31.45;;
24261;SDS011;12385;51.412;5.540;2024-03-08T03:23:26;52.15;;;31.20;;
24261;SDS011;12385;51.412;5.540;2024-03-08T03:25:55;52.33;;;31.55;;
24261;SDS011;12385;51.412;5.540;2024-03-08T03:28:26;52.67;;;31.75;;
24261;SDS011;12385;51.412;5.540;2024-03-08T03:30:57;48.50;;;31.00;;
24261;SDS011;12385;51.412;5.540;2024-03-08T03:33:27;45.40;;;30.63;;
24261;SDS011;12385;51.412;5.540;2024-03-08T03:35:56;45.23;;;30.33;;
24261;SDS011;12385;51.412;5.540;2024-03-08T03:38:28;51.70;;;31.65;;
24261;SDS011;12385;51.412;5.540;2024-03-08T03:40:57;46.53;;;31.15;;
24261;SDS011;12385;51.412;5.540;2024-03-08T03:43:31;48.00;;;31.00;;
24261;SDS011;12385;51.412;5.540;2024-03-08T03:45:58;50.45;;;32.50;;
24261;SDS011;12385;51.412;5.540;2024-03-08T03:48:26;49.20;;;32.33;;
24261;SDS011;12385;51.412;5.540;2024-03-08T03:53:28;48.25;;;31.77;;
24261;SDS011;12385;51.412;5.540;2024-03-08T03:55:57;47.40;;;32.30;;
24261;SDS011;12385;51.412;5.540;2024-03-08T03:58:27;47.92;;;30.88;;
24261;SDS011;12385;51.412;5.540;2024-03-08T04:00:57;52.20;;;31.90;;
24261;SDS011;12385;51.412;5.540;2024-03-08T04:03:27;47.47;;;31.30;;
24261;SDS011;12385;51.412;5.540;2024-03-08T04:05:58;49.22;;;31.08;;
24261;SDS011;12385;51.412;5.540;2024-03-08T04:08:28;47.10;;;31.40;;
24261;SDS011;12385;51.412;5.540;2024-03-08T04:10:57;47.85;;;31.23;;
24261;SDS011;12385;51.412;5.540;2024-03-08T04:13:29;47.38;;;31.52;;
24261;SDS011;12385;51.412;5.540;2024-03-08T04:16:02;50.63;;;31.85;;
24261;SDS011;12385;51.412;5.540;2024-03-08T04:18:32;53.17;;;33.38;;
24261;SDS011;12385;51.412;5.540;2024-03-08T04:21:01;52.17;;;31.77;;
24261;SDS011;12385;51.412;5.540;2024-03-08T04:23:28;45.40;;;30.77;;
24261;SDS011;12385;51.412;5.540;2024-03-08T04:25:58;51.47;;;32.85;;
24261;SDS011;12385;51.412;5.540;2024-03-08T04:28:28;53.95;;;32.78;;
24261;SDS011;12385;51.412;5.540;2024-03-08T04:30:58;52.75;;;32.08;;
24261;SDS011;12385;51.412;5.540;2024-03-08T04:33:28;46.03;;;31.83;;
24261;SDS011;12385;51.412;5.540;2024-03-08T04:35:58;47.38;;;31.80;;
24261;SDS011;12385;51.412;5.540;2024-03-08T04:40:59;50.92;;;32.13;;
24261;SDS011;12385;51.412;5.540;2024-03-08T04:43:28;49.78;;;32.28;;
24261;SDS011;12385;51.412;5.540;2024-03-08T04:45:58;47.70;;;32.92;;
24261;SDS011;12385;51.412;5.540;2024-03-08T04:48:29;49.67;;;32.80;;
24261;SDS011;12385;51.412;5.540;2024-03-08T04:50:58;49.05;;;31.83;;
24261;SDS011;12385;51.412;5.540;2024-03-08T04:53:31;49.33;;;32.38;;
24261;SDS011;12385;51.412;5.540;2024-03-08T04:55:58;49.67;;;32.13;;
24261;SDS011;12385;51.412;5.540;2024-03-08T04:58:28;48.28;;;32.63;;
24261;SDS011;12385;51.412;5.540;2024-03-08T05:00:58;48.40;;;32.70;;
24261;SDS011;12385;51.412;5.540;2024-03-08T05:03:28;50.25;;;33.20;;
24261;SDS011;12385;51.412;5.540;2024-03-08T05:05:59;54.25;;;33.88;;
24261;SDS011;12385;51.412;5.540;2024-03-08T05:08:28;50.67;;;33.22;;
24261;SDS011;12385;51.412;5.540;2024-03-08T05:10:57;52.80;;;32.70;;
24261;SDS011;12385;51.412;5.540;2024-03-08T05:13:30;52.20;;;32.42;;
24261;SDS011;12385;51.412;5.540;2024-03-08T05:18:29;56.42;;;34.10;;
24261;SDS011;12385;51.412;5.540;2024-03-08T05:20:58;56.30;;;33.63;;
24261;SDS011;12385;51.412;5.540;2024-03-08T05:23:27;53.15;;;33.63;;
24261;SDS011;12385;51.412;5.540;2024-03-08T05:25:57;54.03;;;33.92;;
24261;SDS011;12385;51.412;5.540;2024-03-08T05:28:28;52.53;;;33.90;;
24261;SDS011;12385;51.412;5.540;2024-03-08T05:30:57;54.83;;;35.35;;
24261;SDS011;12385;51.412;5.540;2024-03-08T05:33:28;57.25;;;34.72;;
24261;SDS011;12385;51.412;5.540;2024-03-08T05:35:56;56.10;;;34.75;;
24261;SDS011;12385;51.412;5.540;2024-03-08T05:38:26;52.05;;;34.58;;
24261;SDS011;12385;51.412;5.540;2024-03-08T05:40:58;53.95;;;34.92;;
24261;SDS011;12385;51.412;5.540;2024-03-08T05:43:26;55.05;;;35.13;;
24261;SDS011;12385;51.412;5.540;2024-03-08T05:45:56;53.60;;;35.25;;
24261;SDS011;12385;51.412;5.540;2024-03-08T05:48:26;54.08;;;35.60;;
24261;SDS011;12385;51.412;5.540;2024-03-08T05:50:56;56.00;;;35.70;;
24261;SDS011;12385;51.412;5.540;2024-03-08T05:53:26;54.60;;;34.88;;
24261;SDS011;12385;51.412;5.540;2024-03-08T05:55:57;52.78;;;36.25;;
24261;SDS011;12385;51.412;5.540;2024-03-08T05:58:26;54.85;;;34.92;;
24261;SDS011;12385;51.412;5.540;2024-03-08T06:00:57;52.60;;;34.42;;
24261;SDS011;12385;51.412;5.540;2024-03-08T06:03:26;58.35;;;35.42;;
24261;SDS011;12385;51.412;5.540;2024-03-08T06:05:58;53.95;;;35.63;;
24261;SDS011;12385;51.412;5.540;2024-03-08T06:08:28;55.50;;;35.95;;
24261;SDS011;12385;51.412;5.540;2024-03-08T06:10:57;54.15;;;35.03;;
24261;SDS011;12385;51.412;5.540;2024-03-08T06:13:26;60.55;;;36.97;;
24261;SDS011;12385;51.412;5.540;2024-03-08T06:15:55;59.05;;;36.63;;
24261;SDS011;12385;51.412;5.540;2024-03-08T06:18:28;55.13;;;36.03;;
24261;SDS011;12385;51.412;5.540;2024-03-08T06:20:56;56.25;;;35.22;;
24261;SDS011;12385;51.412;5.540;2024-03-08T06:23:28;55.53;;;35.80;;
24261;SDS011;12385;51.412;5.540;2024-03-08T06:25:57;59.20;;;35.28;;
24261;SDS011;12385;51.412;5.540;2024-03-08T06:28:27;60.05;;;36.92;;
24261;SDS011;12385;51.412;5.540;2024-03-08T06:30:57;59.47;;;37.63;;
24261;SDS011;12385;51.412;5.540;2024-03-08T06:33:27;58.75;;;35.30;;
24261;SDS011;12385;51.412;5.540;2024-03-08T06:35:57;57.92;;;37.60;;
24261;SDS011;12385;51.412;5.540;2024-03-08T06:38:27;58.15;;;35.63;;
24261;SDS011;12385;51.412;5.540;2024-03-08T06:40:55;58.25;;;37.08;;
24261;SDS011;12385;51.412;5.540;2024-03-08T06:43:27;58.67;;;37.60;;
24261;SDS011;12385;51.412;5.540;2024-03-08T06:45:59;57.28;;;36.63;;
24261;SDS011;12385;51.412;5.540;2024-03-08T06:48:26;55.75;;;36.70;;
24261;SDS011;12385;51.412;5.540;2024-03-08T06:50:57;58.20;;;36.42;;
24261;SDS011;12385;51.412;5.540;2024-03-08T06:53:26;54.10;;;36.70;;
24261;SDS011;12385;51.412;5.540;2024-03-08T06:55:55;54.10;;;36.33;;
24261;SDS011;12385;51.412;5.540;2024-03-08T06:58:26;57.78;;;37.00;;
24261;SDS011;12385;51.412;5.540;2024-03-08T07:00:58;61.97;;;36.60;;
24261;SDS011;12385;51.412;5.540;2024-03-08T07:03:27;54.55;;;36.20;;
24261;SDS011;12385;51.412;5.540;2024-03-08T07:05:58;55.10;;;35.85;;
24261;SDS011;12385;51.412;5.540;2024-03-08T07:08:27;56.83;;;35.53;;
24261;SDS011;12385;51.412;5.540;2024-03-08T07:10:57;53.33;;;35.67;;
24261;SDS011;12385;51.412;5.540;2024-03-08T07:13:27;53.97;;;35.28;;
24261;SDS011;12385;51.412;5.540;2024-03-08T07:15:57;56.67;;;34.88;;
24261;SDS011;12385;51.412;5.540;2024-03-08T07:18:27;53.05;;;35.65;;
24261;SDS011;12385;51.412;5.540;2024-03-08T07:20:57;54.67;;;34.92;;
24261;SDS011;12385;51.412;5.540;2024-03-08T07:23:28;56.42;;;34.70;;
24261;SDS011;12385;51.412;5.540;2024-03-08T07:26:20;59.05;;;34.55;;
24261;SDS011;12385;51.412;5.540;2024-03-08T07:28:46;53.90;;;33.90;;
24261;SDS011;12385;51.412;5.540;2024-03-08T07:31:12;52.15;;;34.67;;
24261;SDS011;12385;51.412;5.540;2024-03-08T07:33:46;51.25;;;33.75;;
24261;SDS011;12385;51.412;5.540;2024-03-08T07:36:11;51.60;;;34.72;;
24261;SDS011;12385;51.412;5.540;2024-03-08T07:38:37;53.35;;;33.70;;
24261;SDS011;12385;51.412;5.540;2024-03-08T07:41:03;55.83;;;35.00;;
24261;SDS011;12385;51.412;5.540;2024-03-08T07:43:28;50.47;;;32.83;;
24261;SDS011;12385;51.412;5.540;2024-03-08T07:45:58;54.40;;;33.78;;
24261;SDS011;12385;51.412;5.540;2024-03-08T07:48:27;53.28;;;34.95;;
24261;SDS011;12385;51.412;5.540;2024-03-08T07:50:57;52.30;;;33.25;;
24261;SDS011;12385;51.412;5.540;2024-03-08T07:53:27;53.33;;;34.40;;
24261;SDS011;12385;51.412;5.540;2024-03-08T07:55:58;54.90;;;33.47;;
24261;SDS011;12385;51.412;5.540;2024-03-08T07:58:28;50.90;;;32.85;;
24261;SDS011;12385;51.412;5.540;2024-03-08T08:00:57;58.17;;;33.15;;
24261;SDS011;12385;51.412;5.540;2024-03-08T08:03:28;51.30;;;33.65;;
24261;SDS011;12385;51.412;5.540;2024-03-08T08:06:00;56.33;;;33.53;;
24261;SDS011;12385;51.412;5.540;2024-03-08T08:08:27;51.20;;;32.83;;
24261;SDS011;12385;51.412;5.540;2024-03-08T08:10:57;53.00;;;33.67;;
24261;SDS011;12385;51.412;5.540;2024-03-08T08:13:28;48.03;;;31.38;;
24261;SDS011;12385;51.412;5.540;2024-03-08T08:15:57;48.67;;;32.47;;
24261;SDS011;12385;51.412;5.540;2024-03-08T08:18:26;48.70;;;31.05;;
24261;SDS011;12385;51.412;5.540;2024-03-08T08:20:57;50.47;;;32.60;;
24261;SDS011;12385;51.412;5.540;2024-03-08T08:23:27;49.75;;;30.58;;
24261;SDS011;12385;51.412;5.540;2024-03-08T08:25:56;52.13;;;31.42;;
24261;SDS011;12385;51.412;5.540;2024-03-08T08:28:26;52.95;;;32.58;;
24261;SDS011;12385;51.412;5.540;2024-03-08T08:30:56;50.67;;;31.95;;
24261;SDS011;12385;51.412;5.540;2024-03-08T08:33:26;47.65;;;31.67;;
24261;SDS011;12385;51.412;5.540;2024-03-08T08:35:56;49.38;;;29.67;;
24261;SDS011;12385;51.412;5.540;2024-03-08T08:38:26;44.90;;;29.50;;
24261;SDS011;12385;51.412;5.540;2024-03-08T08:40:56;48.40;;;30.20;;
24261;SDS011;12385;51.412;5.540;2024-03-08T08:43:28;50.28;;;30.02;;
24261;SDS011;12385;51.412;5.540;2024-03-08T08:45:57;47.38;;;29.70;;
24261;SDS011;12385;51.412;5.540;2024-03-08T08:48:26;47.47;;;30.50;;
24261;SDS011;12385;51.412;5.540;2024-03-08T08:50:56;46.25;;;29.33;;
24261;SDS011;12385;51.412;5.540;2024-03-08T08:53:21;48.08;;;29.02;;
24261;SDS011;12385;51.412;5.540;2024-03-08T08:55:56;48.42;;;30.38;;
24261;SDS011;12385;51.412;5.540;2024-03-08T08:58:25;48.60;;;29.30;;
24261;SDS011;12385;51.412;5.540;2024-03-08T09:00:56;48.33;;;29.23;;
24261;SDS011;12385;51.412;5.540;2024-03-08T09:03:25;46.47;;;28.98;;
24261;SDS011;12385;51.412;5.540;2024-03-08T09:05:56;48.65;;;29.25;;
24261;SDS011;12385;51.412;5.540;2024-03-08T09:08:26;47.10;;;29.10;;
24261;SDS011;12385;51.412;5.540;2024-03-08T09:10:58;42.63;;;28.70;;
24261;SDS011;12385;51.412;5.540;2024-03-08T09:13:26;42.75;;;27.73;;
24261;SDS011;12385;51.412;5.540;2024-03-08T09:15:56;43.17;;;27.88;;
24261;SDS011;12385;51.412;5.540;2024-03-08T09:18:28;44.15;;;27.20;;
24261;SDS011;12385;51.412;5.540;2024-03-08T09:20:57;44.80;;;27.95;;
24261;SDS011;12385;51.412;5.540;2024-03-08T09:23:27;41.00;;;26.70;;
24261;SDS011;12385;51.412;5.540;2024-03-08T09:25:58;43.00;;;27.75;;
24261;SDS011;12385;51.412;5.540;2024-03-08T09:28:27;41.13;;;27.07;;
24261;SDS011;12385;51.412;5.540;2024-03-08T09:30:55;40.88;;;26.38;;
24261;SDS011;12385;51.412;5.540;2024-03-08T09:33:27;42.85;;;26.65;;
24261;SDS011;12385;51.412;5.540;2024-03-08T09:35:56;42.45;;;27.20;;
24261;SDS011;12385;51.412;5.540;2024-03-08T09:38:26;47.38;;;27.95;;
24261;SDS011;12385;51.412;5.540;2024-03-08T09:40:57;41.03;;;26.20;;
24261;SDS011;12385;51.412;5.540;2024-03-08T09:43:28;41.47;;;25.77;;
24261;SDS011;12385;51.412;5.540;2024-03-08T09:45:56;42.58;;;26.38;;
24261;SDS011;12385;51.412;5.540;2024-03-08T09:48:26;40.03;;;26.33;;
24261;SDS011;12385;51.412;5.540;2024-03-08T09:50:54;39.85;;;26.20;;
24261;SDS011;12385;51.412;5.540;2024-03-08T09:53:21;42.10;;;25.85;;
24261;SDS011;12385;51.412;5.540;2024-03-08T09:55:51;39.58;;;25.63;;
24261;SDS011;12385;51.412;5.540;2024-03-08T09:58:27;39.10;;;25.58;;
24261;SDS011;12385;51.412;5.540;2024-03-08T10:00:57;40.13;;;25.15;;
24261;SDS011;12385;51.412;5.540;2024-03-08T10:03:26;43.03;;;26.35;;
24261;SDS011;12385;51.412;5.540;2024-03-08T10:05:59;37.38;;;25.70;;
24261;SDS011;12385;51.412;5.540;2024-03-08T10:08:28;42.35;;;27.02;;
24261;SDS011;12385;51.412;5.540;2024-03-08T10:10:55;38.90;;;25.65;;
24261;SDS011;12385;51.412;5.540;2024-03-08T10:13:26;41.75;;;25.95;;
24261;SDS011;12385;51.412;5.540;2024-03-08T10:15:56;37.45;;;24.50;;
24261;SDS011;12385;51.412;5.540;2024-03-08T10:18:28;39.85;;;25.30;;
24261;SDS011;12385;51.412;5.540;2024-03-08T10:21:03;36.70;;;24.70;;
24261;SDS011;12385;51.412;5.540;2024-03-08T10:23:32;40.38;;;23.83;;
24261;SDS011;12385;51.412;5.540;2024-03-08T10:26:08;32.65;;;21.30;;
24261;SDS011;12385;51.412;5.540;2024-03-08T10:28:40;38.38;;;24.38;;
24261;SDS011;12385;51.412;5.540;2024-03-08T10:31:06;34.67;;;23.80;;
24261;SDS011;12385;51.412;5.540;2024-03-08T10:33:32;34.47;;;22.23;;
24261;SDS011;12385;51.412;5.540;2024-03-08T10:35:59;30.10;;;20.20;;
24261;SDS011;12385;51.412;5.540;2024-03-08T10:38:26;27.73;;;18.35;;
24261;SDS011;12385;51.412;5.540;2024-03-08T10:40:57;25.50;;;17.73;;
24261;SDS011;12385;51.412;5.540;2024-03-08T10:43:25;29.63;;;18.50;;
24261;SDS011;12385;51.412;5.540;2024-03-08T10:46:02;29.70;;;19.10;;
24261;SDS011;12385;51.412;5.540;2024-03-08T10:48:50;36.35;;;17.13;;
24261;SDS011;12385;51.412;5.540;2024-03-08T10:51:21;28.58;;;16.77;;
24261;SDS011;12385;51.412;5.540;2024-03-08T10:53:57;25.63;;;16.65;;
24261;SDS011;12385;51.412;5.540;2024-03-08T10:56:27;23.73;;;15.95;;
24261;SDS011;12385;51.412;5.540;2024-03-08T10:59:00;25.48;;;15.85;;
24261;SDS011;12385;51.412;5.540;2024-03-08T11:01:26;23.88;;;15.02;;
24261;SDS011;12385;51.412;5.540;2024-03-08T11:03:57;23.00;;;14.77;;
24261;SDS011;12385;51.412;5.540;2024-03-08T11:06:30;23.05;;;14.93;;
24261;SDS011;12385;51.412;5.540;2024-03-08T11:14:59;23.98;;;15.45;;
24261;SDS011;12385;51.412;5.540;2024-03-08T11:19:57;23.23;;;15.32;;
24261;SDS011;12385;51.412;5.540;2024-03-08T11:22:32;23.08;;;15.02;;
24261;SDS011;12385;51.412;5.540;2024-03-08T11:25:04;22.58;;;15.50;;
24261;SDS011;12385;51.412;5.540;2024-03-08T11:27:35;21.02;;;15.05;;
24261;SDS011;12385;51.412;5.540;2024-03-08T11:30:03;26.95;;;15.38;;
24261;SDS011;12385;51.412;5.540;2024-03-08T11:32:37;24.10;;;15.70;;
24261;SDS011;12385;51.412;5.540;2024-03-08T11:35:07;25.08;;;15.00;;
24261;SDS011;12385;51.412;5.540;2024-03-08T11:37:43;21.20;;;14.93;;
24261;SDS011;12385;51.412;5.540;2024-03-08T11:40:14;20.35;;;14.93;;
24261;SDS011;12385;51.412;5.540;2024-03-08T11:42:48;21.77;;;14.65;;
24261;SDS011;12385;51.412;5.540;2024-03-08T11:45:15;22.35;;;14.45;;
24261;SDS011;12385;51.412;5.540;2024-03-08T11:47:42;25.20;;;15.40;;
24261;SDS011;12385;51.412;5.540;2024-03-08T11:50:13;25.70;;;15.00;;
24261;SDS011;12385;51.412;5.540;2024-03-08T11:52:39;24.40;;;15.00;;
24261;SDS011;12385;51.412;5.540;2024-03-08T11:55:05;24.52;;;14.98;;
24261;SDS011;12385;51.412;5.540;2024-03-08T11:57:31;20.08;;;14.35;;
24261;SDS011;12385;51.412;5.540;2024-03-08T11:59:58;19.55;;;13.95;;
24261;SDS011;12385;51.412;5.540;2024-03-08T12:02:32;24.60;;;14.18;;
24261;SDS011;12385;51.412;5.540;2024-03-08T12:05:00;20.33;;;13.57;;
24261;SDS011;12385;51.412;5.540;2024-03-08T12:07:29;22.58;;;13.95;;
24261;SDS011;12385;51.412;5.540;2024-03-08T12:10:16;18.80;;;14.18;;
24261;SDS011;12385;51.412;5.540;2024-03-08T12:12:58;21.80;;;13.77;;
24261;SDS011;12385;51.412;5.540;2024-03-08T12:15:29;19.50;;;14.05;;
24261;SDS011;12385;51.412;5.540;2024-03-08T12:17:58;20.27;;;14.70;;
24261;SDS011;12385;51.412;5.540;2024-03-08T12:20:28;21.90;;;13.95;;
24261;SDS011;12385;51.412;5.540;2024-03-08T12:22:58;18.80;;;14.48;;
24261;SDS011;12385;51.412;5.540;2024-03-08T12:25:31;18.33;;;13.85;;
24261;SDS011;12385;51.412;5.540;2024-03-08T12:28:10;22.20;;;15.10;;
24261;SDS011;12385;51.412;5.540;2024-03-08T12:30:48;19.38;;;13.88;;
24261;SDS011;12385;51.412;5.540;2024-03-08T12:33:28;20.65;;;12.98;;
24261;SDS011;12385;51.412;5.540;2024-03-08T12:35:58;21.38;;;13.63;;
24261;SDS011;12385;51.412;5.540;2024-03-08T12:38:27;19.38;;;13.93;;
24261;SDS011;12385;51.412;5.540;2024-03-08T12:41:00;21.52;;;14.10;;
24261;SDS011;12385;51.412;5.540;2024-03-08T12:43:28;18.48;;;13.57;;
24261;SDS011;12385;51.412;5.540;2024-03-08T12:45:58;22.02;;;14.10;;
24261;SDS011;12385;51.412;5.540;2024-03-08T12:48:28;23.48;;;14.23;;
24261;SDS011;12385;51.412;5.540;2024-03-08T12:51:05;19.83;;;13.98;;
24261;SDS011;12385;51.412;5.540;2024-03-08T12:53:32;18.88;;;13.23;;
24261;SDS011;12385;51.412;5.540;2024-03-08T12:56:04;21.85;;;13.18;;
24261;SDS011;12385;51.412;5.540;2024-03-08T12:58:33;22.05;;;13.27;;
24261;SDS011;12385;51.412;5.540;2024-03-08T13:01:00;20.58;;;13.27;;
24261;SDS011;12385;51.412;5.540;2024-03-08T13:03:28;20.00;;;12.90;;
24261;SDS011;12385;51.412;5.540;2024-03-08T13:05:58;19.60;;;12.80;;
24261;SDS011;12385;51.412;5.540;2024-03-08T13:08:27;21.48;;;13.77;;
24261;SDS011;12385;51.412;5.540;2024-03-08T13:10:57;26.25;;;14.13;;
24261;SDS011;12385;51.412;5.540;2024-03-08T13:13:28;21.05;;;13.85;;
24261;SDS011;12385;51.412;5.540;2024-03-08T13:15:57;22.48;;;13.88;;
24261;SDS011;12385;51.412;5.540;2024-03-08T13:18:27;20.13;;;13.82;;
24261;SDS011;12385;51.412;5.540;2024-03-08T13:20:58;23.42;;;14.23;;
24261;SDS011;12385;51.412;5.540;2024-03-08T13:25:56;20.13;;;13.05;;
24261;SDS011;12385;51.412;5.540;2024-03-08T13:28:26;23.02;;;13.43;;
24261;SDS011;12385;51.412;5.540;2024-03-08T13:30:56;17.80;;;13.15;;
24261;SDS011;12385;51.412;5.540;2024-03-08T13:33:26;19.42;;;13.05;;
24261;SDS011;12385;51.412;5.540;2024-03-08T13:35:56;16.00;;;12.05;;
24261;SDS011;12385;51.412;5.540;2024-03-08T13:38:25;22.30;;;13.00;;
24261;SDS011;12385;51.412;5.540;2024-03-08T13:40:51;19.27;;;12.45;;
24261;SDS011;12385;51.412;5.540;2024-03-08T13:43:26;17.60;;;11.55;;
24261;SDS011;12385;51.412;5.540;2024-03-08T13:45:57;17.88;;;11.52;;
24261;SDS011;12385;51.412;5.540;2024-03-08T13:48:26;16.52;;;11.18;;
24261;SDS011;12385;51.412;5.540;2024-03-08T13:50:56;17.48;;;11.82;;
24261;SDS011;12385;51.412;5.540;2024-03-08T13:58:26;18.45;;;10.77;;
24261;SDS011;12385;51.412;5.540;2024-03-08T14:00:56;12.98;;;10.43;;
24261;SDS011;12385;51.412;5.540;2024-03-08T14:03:26;14.70;;;10.60;;
24261;SDS011;12385;51.412;5.540;2024-03-08T14:05:54;14.20;;;10.07;;
24261;SDS011;12385;51.412;5.540;2024-03-08T14:08:26;15.13;;;10.27;;
24261;SDS011;12385;51.412;5.540;2024-03-08T14:10:58;14.48;;;9.65;;
24261;SDS011;12385;51.412;5.540;2024-03-08T14:13:26;13.73;;;9.93;;
24261;SDS011;12385;51.412;5.540;2024-03-08T14:15:58;13.15;;;10.10;;
24261;SDS011;12385;51.412;5.540;2024-03-08T14:18:26;13.60;;;10.10;;
24261;SDS011;12385;51.412;5.540;2024-03-08T14:20:57;12.63;;;9.80;;
24261;SDS011;12385;51.412;5.540;2024-03-08T14:23:27;15.13;;;9.75;;
24261;SDS011;12385;51.412;5.540;2024-03-08T14:25:56;14.70;;;9.40;;
24261;SDS011;12385;51.412;5.540;2024-03-08T14:28:26;14.85;;;10.65;;
24261;SDS011;12385;51.412;5.540;2024-03-08T14:30:55;15.00;;;10.40;;
24261;SDS011;12385;51.412;5.540;2024-03-08T14:33:27;13.07;;;10.02;;
24261;SDS011;12385;51.412;5.540;2024-03-08T14:35:56;12.25;;;9.52;;
24261;SDS011;12385;51.412;5.540;2024-03-08T14:38:26;13.15;;;10.15;;
24261;SDS011;12385;51.412;5.540;2024-03-08T14:40:56;11.70;;;9.80;;
24261;SDS011;12385;51.412;5.540;2024-03-08T14:45:56;14.40;;;9.82;;
24261;SDS011;12385;51.412;5.540;2024-03-08T14:48:26;11.52;;;9.05;;
24261;SDS011;12385;51.412;5.540;2024-03-08T14:50:55;13.02;;;9.25;;
24261;SDS011;12385;51.412;5.540;2024-03-08T14:53:26;14.10;;;10.65;;
24261;SDS011;12385;51.412;5.540;2024-03-08T14:55:57;13.73;;;9.93;;
24261;SDS011;12385;51.412;5.540;2024-03-08T14:58:26;14.02;;;10.55;;
24261;SDS011;12385;51.412;5.540;2024-03-08T15:00:55;14.83;;;10.30;;
24261;SDS011;12385;51.412;5.540;2024-03-08T15:03:26;13.80;;;9.82;;
24261;SDS011;12385;51.412;5.540;2024-03-08T15:05:56;14.00;;;9.38;;
24261;SDS011;12385;51.412;5.540;2024-03-08T15:08:26;14.38;;;8.98;;
24261;SDS011;12385;51.412;5.540;2024-03-08T15:10:58;12.48;;;9.50;;
24261;SDS011;12385;51.412;5.540;2024-03-08T15:13:28;14.80;;;10.07;;